Main page
METAR-TAF:

METAR-TAF

Airports :

London City Airport

London, England

latitude: 51-30N, longitude: 000-03E, elevation: 5 m

Current weather observation

The report was made 32 minutes ago, at 20:50 UTC
Wind 4 kt from the Southwest, varying between South and West
Temperature 11°C
Humidity 87%
Pressure 1025 hPa
Visibility 10 km or more

METAR: EGLC 132050Z AUTO 22004KT 180V270 9999 NCD 11/09 Q1025

Time: 21:22 (21:22 UTC)

Forecast

The report was made 4 hours and 19 minutes ago, at 17:03 UTC
Forecast valid from 13 at 18 UTC to 13 at 21 UTC
Wind 8 kt from the South
Visibility 10 km or more
Few clouds at a height of 3000 ft

TAF: EGLC 131703Z 1318/1321 19008KT 9999 FEW030

Weather observations and forecasts of more than 4000 airports (METAR and TAF reports).

The available stations are represented by yellow and red dots on the map.

Hover mouse over dot to see the name of the station.

Then click to see weather observations and forecasts.

To change the map : click on the green buttons with a black cross to zoom in, on the green button with a dash to zoom out, or on the green arrows for adjacent maps.


METAR-TAF: